Tiempo atmosférico en la estación meteorológica de Retiendas, Guadalajara (910 m.)



Fecha
DESCASC
Temp. máxima en grados centígrados (hora)
DESCASC
Temp. mínima en grados centígrados (hora)
DESCASC
Temp. media en grados centígrados
DESCASC
Racha de viento máxima en m/sg (hora)
DESCASC
Velocidad máxima media en intervalos de 10 minutos(hora)
DESCASC
Precipitaciones diarias en mm
DESCASC
Precipitaciones de 00:00 a 06:00 en mm
DESCASC
Precipitaciones de 06:00 a 12:00 en mm
DESCASC
Precipitaciones de 12:00 a 18:00 en mm
DESCASC
Precipitaciones de 18:00 a 24:00 en mm
DESCASC

Gráficas

Temp. máximas Temp. mínimas Temp. medias Precipitaciones Rachas de viento máximas Velocidades máximas media en intervalos de 10 minutos

Datos horarios

Fecha y hora oficial Temperatura (ºC) Velocidad del viento (km/h) Dirección del viento Racha (km/h) Dirección de racha Precipitación (mm) Presión (hPa) Tendencia (hPa) Humedad (%)
2019-12-15 23:00:00 6.3 0 Calma 2 Noroeste 0 -- -- 100
2019-12-15 22:00:00 6.2 0 Calma 2 Sur 0 -- -- 100
2019-12-15 21:00:00 6.3 0 Calma 3 Sur 0.2 -- -- 99
2019-12-15 20:00:00 6.4 0 Calma 2 Sur 0 -- -- 99
2019-12-15 19:00:00 6.5 0 Calma 2 Sur 0 -- -- 98
2019-12-15 18:00:00 6.6 0 Calma 8 Sudeste 0.2 -- -- 98
2019-12-15 17:00:00 6.8 4 Sudeste 7 Sudeste 0 -- -- 97
2019-12-15 16:00:00 6.8 3 Sudeste 11 Sudeste 0.2 -- -- 97
2019-12-15 15:00:00 6.7 5 Sudeste 13 Sudeste 0 -- -- 96
2019-12-15 14:00:00 6.6 0 Calma 7 Sudeste 0.4 -- -- 98
2019-12-15 13:00:00 6.1 0 Calma 4 Sur 0 -- -- 97
2019-12-15 12:00:00 5.5 2 Sur 4 Sur 0 -- -- 95
2019-12-15 11:00:00 5 0 Calma 4 Sudoeste 0 -- -- 91
2019-12-15 10:00:00 4.4 0 Calma 4 Norte 0 -- -- 92
2019-12-15 09:00:00 4.2 0 Calma 9 Nordeste 0 -- -- 93
2019-12-15 08:00:00 4 7 Nordeste 15 Norte 0 -- -- 93
2019-12-15 07:00:00 3.8 4 Nordeste 10 Nordeste 0 -- -- 95
2019-12-15 06:00:00 3.8 7 Nordeste 14 Nordeste 0 -- -- 97
2019-12-15 05:00:00 4 8 Nordeste 13 Nordeste 0 -- -- 97
2019-12-15 04:00:00 4.3 3 Nordeste 8 Este 0 -- -- 97
2019-12-15 03:00:00 4.4 0 Calma 6 Sur 0 -- -- 97
2019-12-15 02:00:00 4.5 2 Noroeste 7 Noroeste 0 -- -- 96
2019-12-15 01:00:00 4.4 0 Calma 7 Nordeste 0 -- -- 96
2019-12-15 00:00:00 4.3 0 Calma 3 Nordeste 0 -- -- 97
2019-12-14 23:00:00 3.8 0 Calma 4 Sur 0 -- -- 95
2019-12-14 22:00:00 4.9 0 Calma 10 Este 0 -- -- 92
2019-12-14 21:00:00 6.6 7 Sudeste 20 Sudeste 0 -- -- 88
2019-12-14 20:00:00 7.5 4 Sudoeste 13 Sudeste 0 -- -- 87
2019-12-14 19:00:00 7.9 6 Sur 16 Sudeste 0 -- -- 85
2019-12-14 18:00:00 7.7 4 Sur 14 Sudeste 0 -- -- 82
2019-12-14 17:00:00 8.7 5 Sudoeste 17 Sudeste 0 -- -- 75
2019-12-14 16:00:00 9.4 8 Sudeste 17 Sur 0 -- -- 73
2019-12-14 15:00:00 9.8 9 Sur 18 Sudeste 0 -- -- 77
2019-12-14 14:00:00 6.6 9 Sudeste 20 Sudeste 0 -- -- 88
2019-12-14 13:00:00 7 9 Sudeste 21 Sur 0 -- -- 87
2019-12-14 12:00:00 7.9 10 Sur 17 Sudeste 0 -- -- 81
2019-12-14 11:00:00 5.6 10 Sudeste 15 Sur 0 -- -- 88
2019-12-14 10:00:00 2.3 2 Sur 5 Sur 0 -- -- 95
2019-12-14 09:00:00 2.2 0 Calma 4 Sur 0 -- -- 91
2019-12-14 08:00:00 3.8 0 Calma 10 Sur 0 -- -- 87
2019-12-14 07:00:00 7.7 0 Calma 21 Norte 0 -- -- 70
2019-12-14 06:00:00 8.8 8 Nordeste 31 Nordeste 0 -- -- 66
2019-12-14 05:00:00 7.8 2 Este 18 Nordeste 0 -- -- 71
2019-12-14 04:00:00 7.8 4 Nordeste 19 Nordeste 0 -- -- 71
2019-12-14 03:00:00 9 5 Noroeste 22 Nordeste 0 -- -- 69
2019-12-14 02:00:00 9.9 15 Nordeste 45 Nordeste 0 -- -- 66
2019-12-14 01:00:00 10.1 18 Norte 39 Nordeste 0 -- -- 66
2019-12-14 00:00:00 10.5 4 Nordeste 41 Este 0 -- -- 66
2019-12-13 23:00:00 10.8 15 Nordeste 28 Nordeste 0 -- -- 64
2019-12-13 22:00:00 11.2 9 Nordeste 32 Este 0 -- -- 64
2019-12-13 21:00:00 11.5 3 Sudeste 31 Sudeste 0 -- -- 65
2019-12-13 20:00:00 11.5 6 Nordeste 32 Nordeste 0 -- -- 68
2019-12-13 19:00:00 11.7 13 Nordeste 45 Nordeste 0 -- -- 72
2019-12-13 18:00:00 11.9 19 Nordeste 46 Nordeste 0 -- -- 73
2019-12-13 17:00:00 12.2 15 Nordeste 38 Este 0 -- -- 73
2019-12-13 16:00:00 12.2 13 Nordeste 35 Nordeste 0 -- -- 73
2019-12-13 15:00:00 12.7 11 Nordeste 29 Norte 0 -- -- 70
2019-12-13 14:00:00 12.9 6 Nordeste 25 Este 0 -- -- 67
2019-12-13 13:00:00 12.8 4 Sur 32 Sudoeste 0 -- -- 68
2019-12-13 12:00:00 12.5 7 Sur 23 Sur 0 -- -- 67
2019-12-13 11:00:00 11.8 4 Sur 22 Sudeste 0 -- -- 70
2019-12-13 10:00:00 10.9 6 Este 21 Este 0 -- -- 70
2019-12-13 09:00:00 10.7 8 Este 37 Sur 0 -- -- 71
2019-12-13 08:00:00 11.2 8 Sudeste 46 Sur 0 -- -- 71
2019-12-13 07:00:00 11.4 4 Sudeste 32 Sur 0 -- -- 72
2019-12-13 06:00:00 11.6 6 Sudeste 42 Nordeste 0 -- -- 74
2019-12-13 05:00:00 11.9 9 Nordeste 44 Nordeste 0 -- -- 75
2019-12-13 04:00:00 12 9 Sudeste 33 Norte 0 -- -- 77
2019-12-13 03:00:00 11.9 10 Sur 45 Nordeste 0.2 -- -- 77
2019-12-13 02:00:00 11.3 10 Nordeste 46 Este 0.2 -- -- 80
2019-12-13 01:00:00 11.2 10 Este 33 Sudeste 0.2 -- -- 81
2019-12-13 00:00:00 11.4 8 Sur 26 Sudoeste 0.2 -- -- 78
2019-12-12 23:00:00 10.9 9 Nordeste 39 Nordeste 0 -- -- 79
2019-12-12 22:00:00 10 6 Este 24 Nordeste 0 -- -- 83
2019-12-12 21:00:00 10.2 7 Nordeste 39 Este 0 -- -- 80
2019-12-12 20:00:00 7.8 5 Este 23 Este 0.2 -- -- 95
2019-12-12 19:00:00 5.6 9 Sudeste 25 Sur 0.6 -- -- 99
2019-12-12 18:00:00 4.9 8 Sudeste 20 Sudeste 1.4 -- -- 99
2019-12-12 17:00:00 4.7 11 Sudeste 27 Sur 0.6 -- -- 98
2019-12-12 16:00:00 4.5 13 Sudeste 27 Sudeste 0.8 -- -- 97
2019-12-12 15:00:00 5 15 Sudeste 23 Sur 1.2 -- -- 94
2019-12-12 14:00:00 5.4 5 Sur 15 Sudeste 1.4 -- -- 92
2019-12-12 13:00:00 5.6 4 Sur 15 Sudeste 0.8 -- -- 93
2019-12-12 12:00:00 5.3 9 Sudeste 15 Sudeste 0.4 -- -- 91
2019-12-12 11:00:00 5.2 9 Sudeste 29 Sudeste 0 -- -- 84
2019-12-12 10:00:00 5.6 2 Sudeste 18 Sur 0 -- -- 77
2019-12-12 09:00:00 6 0 Calma 15 Norte 0 -- -- 76
2019-12-12 08:00:00 5.6 6 Sur 19 Sur 0 -- -- 72
2019-12-12 07:00:00 5.3 2 Sur 18 Este 0 -- -- 75
2019-12-12 06:00:00 6 7 Nordeste 23 Nordeste 0 -- -- 70
2019-12-12 05:00:00 5.8 4 Nordeste 26 Este 0 -- -- 67
2019-12-12 04:00:00 5.5 6 Nordeste 21 Este 0 -- -- 68
2019-12-12 03:00:00 5.4 7 Nordeste 22 Nordeste 0 -- -- 71
2019-12-12 02:00:00 5.6 9 Nordeste 27 Este 0 -- -- 70
2019-12-12 01:00:00 5.6 4 Este 24 Norte 0 -- -- 70
2019-12-12 00:00:00 5.5 5 Este 32 Sur 0 -- -- 70
2019-12-11 23:00:00 5.7 5 Sudeste 21 Este 0 -- -- 65
2019-12-11 22:00:00 5.8 3 Sudeste 30 Sur 0 -- -- 63
2019-12-11 21:00:00 5.8 5 Sudeste 30 Sur 0 -- -- 63
2019-12-11 20:00:00 5.9 7 Sudeste 35 Sur 0 -- -- 62
2019-12-11 19:00:00 5.4 4 Este 31 Sudeste 0 -- -- 60
2019-12-11 18:00:00 6.5 7 Oeste 26 Nordeste 0 -- -- 56
2019-12-11 17:00:00 7.1 13 Nordeste 37 Norte 0 -- -- 59
2019-12-11 16:00:00 7.7 15 Nordeste 38 Nordeste 0 -- -- 56
2019-12-11 15:00:00 7.4 14 Nordeste 37 Nordeste 0 -- -- 65
2019-12-11 14:00:00 6.5 12 Nordeste 33 Nordeste 0 -- -- 77
2019-12-11 13:00:00 3.3 0 Calma 8 Sur 0 -- -- 100
2019-12-11 12:00:00 1.8 5 Sudeste 14 Sudeste 0.2 -- -- 100
2019-12-11 11:00:00 1.3 8 Sudeste 13 Sudeste 0 -- -- 100
2019-12-11 10:00:00 0.6 0 Calma 5 Sudeste 0.4 -- -- 100
2019-12-11 09:00:00 0.3 3 Sudeste 6 Sudeste 0 -- -- 100
2019-12-11 08:00:00 -0.1 0 Calma 4 Sur 0 -- -- 100
2019-12-11 07:00:00 -0.4 0 Calma 3 Oeste 0 -- -- 100
2019-12-11 06:00:00 -1.5 0 Calma 6 Sur 0 -- -- 98
2019-12-11 05:00:00 -1 0 Calma 6 Norte 0 -- -- 96
2019-12-11 04:00:00 -0.4 0 Calma 4 Nordeste 0 -- -- 97
2019-12-11 03:00:00 0.1 0 Calma 5 Nordeste 0 -- -- 97
2019-12-11 02:00:00 0 0 Calma 4 Norte 0 -- -- 96
2019-12-11 01:00:00 0.3 0 Calma 3 Sudeste 0 -- -- 97
2019-12-11 00:00:00 1 0 Calma 6 Sur 0 -- -- 94
2019-12-10 23:00:00 1.9 0 Calma 2 Norte 0 -- -- 93
2019-12-10 22:00:00 2.5 0 Calma 4 Sur 0 -- -- 93
2019-12-10 21:00:00 3.2 0 Calma 6 Noroeste 0 -- -- 92
2019-12-10 20:00:00 3.6 0 Calma 0 Calma 0 -- -- 91
2019-12-10 19:00:00 4.8 0 Calma 4 Sur 0 -- -- 86
2019-12-10 18:00:00 6.4 3 Sur 9 Sudeste 0 -- -- 80
2019-12-10 17:00:00 8.8 3 Sur 10 Sudeste 0 -- -- 71
2019-12-10 16:00:00 12.2 2 Sudoeste 12 Sudeste 0 -- -- 57
2019-12-10 15:00:00 12.8 8 Sudeste 14 Sudeste 0 -- -- 54
2019-12-10 14:00:00 12.1 6 Sur 15 Sudeste 0 -- -- 54
2019-12-10 13:00:00 11 10 Sudeste 17 Sudeste 0 -- -- 54
2019-12-10 12:00:00 6.9 0 Calma 8 Nordeste 0 -- -- 56
2019-12-10 11:00:00 3.3 4 Nordeste 9 Nordeste 0 -- -- 67
2019-12-10 10:00:00 -0.4 2 Nordeste 10 Norte 0 -- -- 87
2019-12-10 09:00:00 -1.6 0 Calma 6 Norte 0 -- -- 92
2019-12-10 08:00:00 -1.3 0 Calma 7 Nordeste 0 -- -- 93
2019-12-10 07:00:00 -1.3 0 Calma 5 Norte 0 -- -- 97
2019-12-10 06:00:00 -1.6 0 Calma 4 Sur 0 -- -- 96
2019-12-10 05:00:00 -1.1 0 Calma 3 Nordeste 0 -- -- 95
2019-12-10 04:00:00 -0.3 0 Calma 3 Sur 0 -- -- 92
2019-12-10 03:00:00 1.2 0 Calma 4 Sur 0 -- -- 86
2019-12-10 02:00:00 4.1 2 Sur 23 Nordeste 0 -- -- 75
2019-12-10 01:00:00 6.4 14 Nordeste 33 Nordeste 0 -- -- 64
2019-12-10 00:00:00 5.5 3 Norte 19 Este 0 -- -- 71
2019-12-09 23:00:00 6.1 9 Norte 24 Nordeste 0 -- -- 68
2019-12-09 22:00:00 6 7 Nordeste 19 Nordeste 0 -- -- 71
2019-12-09 21:00:00 5.4 5 Nordeste 13 Nordeste 0 -- -- 73
2019-12-09 20:00:00 1.7 0 Calma 5 Nordeste 0 -- -- 97
2019-12-09 19:00:00 2.2 0 Calma 4 Sur 0 -- -- 95
2019-12-09 18:00:00 3.5 0 Calma 5 Sur 0 -- -- 94
2019-12-09 17:00:00 5 2 Sudoeste 6 Norte 0 -- -- 89
2019-12-09 16:00:00 7.1 0 Calma 7 Sudoeste 0 -- -- 81
2019-12-09 15:00:00 9 5 Sudoeste 10 Sur 0 -- -- 76
2019-12-09 14:00:00 6.9 3 Sudoeste 21 Sudeste 0 -- -- 85
2019-12-09 13:00:00 4.3 11 Sudeste 28 Sur 0 -- -- 93
2019-12-09 12:00:00 2.3 12 Sudeste 22 Sudeste 0 -- -- 100
2019-12-09 11:00:00 1.4 13 Sudeste 21 Sudeste 0 -- -- 95
2019-12-09 10:00:00 -0.1 0 Calma 6 Sudeste 0 -- -- 100
2019-12-09 09:00:00 -0.3 2 Sur 8 Sur 0 -- -- 97
2019-12-09 08:00:00 0.6 2 Sur 5 Sur 0 -- -- 96
2019-12-09 07:00:00 2 0 Calma 5 Nordeste 0 -- -- 93
2019-12-09 06:00:00 2.5 0 Calma 8 Este 0 -- -- 93
2019-12-09 05:00:00 3.4 0 Calma 17 Nordeste 0 -- -- 90
2019-12-09 04:00:00 7 14 Nordeste 22 Norte 0 -- -- 71
2019-12-09 03:00:00 5.5 4 Nordeste 11 Nordeste 0 -- -- 89
2019-12-09 02:00:00 4.5 5 Nordeste 12 Nordeste 0 -- -- 100
2019-12-09 01:00:00 2.8 4 Sudeste 18 Nordeste 0 -- -- 100
2019-12-09 00:00:00 3.3 2 Noroeste 4 Norte 0 -- -- 100
2019-12-08 23:00:00 4 0 Calma 4 Nordeste 0 -- -- 100
2019-12-08 22:00:00 4.3 0 Calma 6 Sur 0 -- -- 100
2019-12-08 21:00:00 4.6 4 Sudeste 6 Nordeste 0 -- -- 99
2019-12-08 20:00:00 4.5 0 Calma 7 Sudeste 0 -- -- 99
2019-12-08 19:00:00 4.6 2 Sur 6 Sudeste 0 -- -- 99
2019-12-08 18:00:00 4.8 5 Sudeste 10 Sudeste 0 -- -- 98
2019-12-08 17:00:00 5.1 5 Sudeste 11 Sudeste 0 -- -- 97
2019-12-08 16:00:00 4.9 5 Sudeste 9 Sudeste 0 -- -- 97
2019-12-08 15:00:00 5.1 5 Sudeste 11 Sudeste 0 -- -- 95
2019-12-08 14:00:00 4.9 6 Sudeste 16 Sudeste 0 -- -- 94
2019-12-08 13:00:00 5.4 10 Sudeste 19 Sur 0 -- -- 90
2019-12-08 12:00:00 6.1 10 Sudeste 19 Sudeste 0 -- -- 86
2019-12-08 11:00:00 4.3 0 Calma 4 Este 0 -- -- 95
2019-12-08 10:00:00 1.1 2 Sudeste 6 Nordeste 0 -- -- 98
2019-12-08 09:00:00 -0.2 2 Nordeste 6 Nordeste 0 -- -- 99
2019-12-08 08:00:00 -0.3 0 Calma 3 Nordeste 0 -- -- 99
2019-12-08 07:00:00 0.3 0 Calma 4 Norte 0 -- -- 98
2019-12-08 06:00:00 0.4 0 Calma 5 Nordeste 0 -- -- 96
2019-12-08 05:00:00 0.8 0 Calma 7 Nordeste 0 -- -- 96
2019-12-08 04:00:00 1 0 Calma 5 Nordeste 0 -- -- 96
2019-12-08 03:00:00 1.4 0 Calma 5 Noroeste 0 -- -- 96
2019-12-08 02:00:00 1.7 0 Calma 9 Nordeste 0 -- -- 95
2019-12-08 01:00:00 2.3 4 Nordeste 9 Nordeste 0 -- -- 95
2019-12-08 00:00:00 2.8 3 Norte 6 Norte 0 -- -- 96
2019-12-07 23:00:00 3.1 0 Calma 6 Nordeste 0 -- -- 95
2019-12-07 22:00:00 3.5 2 Norte 6 Nordeste 0 -- -- 94
2019-12-07 21:00:00 4.4 0 Calma 6 Nordeste 0 -- -- 93
2019-12-07 20:00:00 5 0 Calma 2 Sur 0 -- -- 92
2019-12-07 19:00:00 6.2 0 Calma 2 Sur 0 -- -- 88
2019-12-07 18:00:00 7.6 0 Calma 4 Sur 0 -- -- 85
2019-12-07 17:00:00 9.7 0 Calma 9 Sudeste 0 -- -- 75
2019-12-07 16:00:00 12.9 5 Sur 14 Sudeste 0 -- -- 62
2019-12-07 15:00:00 13.5 5 Sudoeste 13 Sudeste 0 -- -- 59
2019-12-07 14:00:00 13 5 Sur 14 Sudeste 0 -- -- 59
2019-12-07 13:00:00 12 5 Sur 11 Sudeste 0 -- -- 65
2019-12-07 12:00:00 8 0 Calma 7 Este 0 -- -- 74
2019-12-07 11:00:00 4.9 4 Nordeste 8 Nordeste 0 -- -- 86
2019-12-07 10:00:00 2.1 2 Nordeste 7 Nordeste 0 -- -- 96
2019-12-07 09:00:00 0.4 0 Calma 6 Norte 0 -- -- 98
2019-12-07 08:00:00 0.5 2 Norte 6 Nordeste 0 -- -- 98
2019-12-07 07:00:00 0.6 2 Norte 6 Norte 0 -- -- 97
2019-12-07 06:00:00 0.5 0 Calma 7 Norte 0 -- -- 97
2019-12-07 05:00:00 0.8 0 Calma 9 Nordeste 0 -- -- 96
2019-12-07 04:00:00 1.3 4 Norte 8 Nordeste 0 -- -- 97
2019-12-07 03:00:00 1.3 0 Calma 6 Norte 0 -- -- 97
2019-12-07 02:00:00 1.5 0 Calma 3 Norte 0 -- -- 96
2019-12-07 01:00:00 2.1 0 Calma 7 Norte 0 -- -- 95
2019-12-07 00:00:00 2.5 0 Calma 5 Nordeste 0 -- -- 96
2019-12-06 23:00:00 3 0 Calma 7 Norte 0 -- -- 94
2019-12-06 22:00:00 3.5 2 Noroeste 9 Nordeste 0 -- -- 92
2019-12-06 21:00:00 4.4 2 Norte 7 Nordeste 0 -- -- 91
2019-12-06 20:00:00 5.1 0 Calma 5 Nordeste 0 -- -- 90
2019-12-06 19:00:00 6.1 0 Calma 4 Sur 0 -- -- 88
2019-12-06 18:00:00 7.5 2 Sudoeste 7 Sudoeste 0 -- -- 81
2019-12-06 17:00:00 9.3 2 Sudoeste 5 Sudoeste 0 -- -- 75
2019-12-06 16:00:00 12.7 4 Sur 12 Sudeste 0 -- -- 58
2019-12-06 15:00:00 12.9 4 Sudoeste 12 Sur 0 -- -- 60
2019-12-06 14:00:00 12.6 4 Sudoeste 10 Sudoeste 0 -- -- 59
2019-12-06 13:00:00 11.1 0 Calma 5 Norte 0 -- -- 65
2019-12-06 12:00:00 9.3 2 Nordeste 6 Oeste 0 -- -- 73
2019-12-06 11:00:00 5.9 3 Nordeste 11 Nordeste 0 -- -- 84
2019-12-06 10:00:00 3.3 3 Nordeste 9 Este 0 -- -- 93
2019-12-06 09:00:00 2.4 2 Nordeste 9 Nordeste 0 -- -- 94
2019-12-06 08:00:00 2.9 3 Norte 10 Noroeste 0 -- -- 94
2019-12-06 07:00:00 3.6 3 Norte 8 Norte 0 -- -- 93
2019-12-06 06:00:00 4.5 0 Calma 5 Nordeste 0 -- -- 91
2019-12-06 05:00:00 5.7 0 Calma 5 Noroeste 0 -- -- 87
2019-12-06 04:00:00 7 0 Calma 6 Sur 0 -- -- 83
2019-12-06 03:00:00 7.4 2 Sudoeste 9 Noroeste 0 -- -- 81
2019-12-06 02:00:00 7 0 Calma 4 Nordeste 0 -- -- 84
2019-12-06 01:00:00 7.4 0 Calma 8 Este 0 -- -- 80
2019-12-06 00:00:00 7.6 3 Nordeste 9 Oeste 0 -- -- 80
2019-12-05 23:00:00 7.4 0 Calma 13 Norte 0 -- -- 79
2019-12-05 22:00:00 8 2 Noroeste 19 Norte 0 -- -- 76
2019-12-05 21:00:00 8.3 3 Norte 10 Sudoeste 0 -- -- 75
2019-12-05 20:00:00 8.5 3 Norte 15 Norte 0 -- -- 75
2019-12-05 19:00:00 8.9 3 Oeste 14 Oeste 0 -- -- 75
2019-12-05 18:00:00 9.3 8 Noroeste 26 Norte 0 -- -- 72
2019-12-05 17:00:00 9.8 6 Norte 23 Noroeste 0 -- -- 69
2019-12-05 16:00:00 9.9 8 Norte 24 Norte 0 -- -- 67
2019-12-05 15:00:00 9.7 11 Noroeste 24 Noroeste 0 -- -- 68
2019-12-05 14:00:00 10.9 8 Oeste 33 Norte 0 -- -- 63
2019-12-05 13:00:00 10.2 10 Noroeste 25 Noroeste 0 -- -- 66
2019-12-05 12:00:00 9.4 14 Nordeste 32 Nordeste 0 -- -- 66
2019-12-05 11:00:00 8.6 12 Norte 33 Nordeste 0 -- -- 69
2019-12-05 10:00:00 7.8 4 Norte 28 Nordeste 0 -- -- 72
2019-12-05 09:00:00 7.6 7 Norte 26 Nordeste 0 -- -- 72
2019-12-05 08:00:00 7.7 8 Norte 23 Nordeste 0 -- -- 72
2019-12-05 07:00:00 7.4 5 Norte 19 Norte 0 -- -- 73
2019-12-05 06:00:00 7.6 9 Norte 22 Nordeste 0 -- -- 73
2019-12-05 05:00:00 7.9 11 Nordeste 24 Nordeste 0 -- -- 70
2019-12-05 04:00:00 8.4 11 Norte 26 Norte 0 -- -- 65
2019-12-05 03:00:00 8.2 8 Norte 19 Nordeste 0 -- -- 67
2019-12-05 02:00:00 6.5 0 Calma 12 Norte 0 -- -- 83
2019-12-05 01:00:00 6.5 0 Calma 8 Nordeste 0 -- -- 82
2019-12-05 00:00:00 6.9 2 Nordeste 12 Nordeste 0 -- -- 79
2019-12-04 23:00:00 8.1 5 Nordeste 19 Nordeste 0 -- -- 72
2019-12-04 22:00:00 9.6 10 Nordeste 24 Nordeste 0 -- -- 63
2019-12-04 21:00:00 10 10 Nordeste 23 Nordeste 0 -- -- 62
2019-12-04 20:00:00 9.5 8 Nordeste 18 Nordeste 0 -- -- 66
2019-12-04 19:00:00 9.5 4 Norte 24 Nordeste 0 -- -- 66
2019-12-04 18:00:00 9.9 12 Norte 27 Nordeste 0 -- -- 67
2019-12-04 17:00:00 10.1 9 Norte 23 Nordeste 0 -- -- 68
2019-12-04 16:00:00 9.9 9 Norte 32 Nordeste 0 -- -- 69
2019-12-04 15:00:00 10.4 20 Norte 40 Norte 0 -- -- 67
2019-12-04 14:00:00 9.8 12 Norte 35 Nordeste 0 -- -- 71
2019-12-04 13:00:00 9.1 10 Nordeste 23 Nordeste 0 -- -- 74
2019-12-04 12:00:00 8.8 8 Norte 19 Nordeste 0 -- -- 77
2019-12-04 11:00:00 8 7 Norte 18 Noroeste 0 -- -- 82
2019-12-04 10:00:00 6.6 2 Sur 7 Norte 0 -- -- 92
2019-12-04 09:00:00 6.3 2 Sudoeste 11 Oeste 0 -- -- 89
2019-12-04 08:00:00 6.1 2 Noroeste 13 Norte 0 -- -- 90
2019-12-04 07:00:00 5.1 3 Noroeste 12 Nordeste 0 -- -- 95
2019-12-04 06:00:00 4.9 4 Noroeste 11 Nordeste 0 -- -- 97
2019-12-04 05:00:00 4.3 0 Calma 8 Nordeste 0.2 -- -- 96
2019-12-04 04:00:00 4.1 6 Nordeste 12 Nordeste 0.4 -- -- 94
2019-12-04 03:00:00 4.1 4 Norte 12 Nordeste 1 -- -- 94
2019-12-04 02:00:00 4.4 0 Calma 9 Nordeste 0.2 -- -- 88
2019-12-04 01:00:00 4.5 0 Calma 9 Nordeste 0 -- -- 80
2019-12-04 00:00:00 4.2 3 Noroeste 15 Norte 0 -- -- 79
2019-12-03 23:00:00 3.3 4 Norte 16 Nordeste 0 -- -- 83
2019-12-03 22:00:00 2.9 4 Norte 10 Nordeste 0 -- -- 84
2019-12-03 21:00:00 2.6 8 Nordeste 16 Nordeste 0 -- -- 85
2019-12-03 20:00:00 2.9 10 Nordeste 17 Norte 0 -- -- 85
2019-12-03 19:00:00 2.7 2 Nordeste 4 Nordeste 0 -- -- 88
2019-12-03 18:00:00 3.6 0 Calma 7 Sur 0 -- -- 82
2019-12-03 17:00:00 4.9 3 Sudoeste 9 Oeste 0 -- -- 75
2019-12-03 16:00:00 7.3 3 Sudoeste 16 Sudoeste 0 -- -- 65
2019-12-03 15:00:00 8.7 5 Sudoeste 19 Sudoeste 0 -- -- 60
2019-12-03 14:00:00 8.9 7 Sudoeste 13 Sur 0 -- -- 56
2019-12-03 13:00:00 7.3 3 Nordeste 10 Nordeste 0 -- -- 54
2019-12-03 12:00:00 6.2 3 Sur 6 Este 0 -- -- 63
2019-12-03 11:00:00 2.9 4 Nordeste 14 Nordeste 0 -- -- 69
2019-12-03 10:00:00 -0.4 5 Nordeste 18 Norte 0 -- -- 87
2019-12-03 09:00:00 -1.3 6 Nordeste 13 Nordeste 0 -- -- 94
2019-12-03 08:00:00 -1.6 0 Calma 8 Nordeste 0 -- -- 93
2019-12-03 07:00:00 -1.5 0 Calma 5 Norte 0 -- -- 93
2019-12-03 06:00:00 -1 4 Nordeste 8 Nordeste 0 -- -- 93
2019-12-03 05:00:00 -1 3 Oeste 11 Nordeste 0 -- -- 91
2019-12-03 04:00:00 -1 3 Norte 8 Nordeste 0 -- -- 94
2019-12-03 03:00:00 -0.5 2 Norte 13 Nordeste 0 -- -- 94
2019-12-03 02:00:00 -0.2 3 Norte 6 Norte 0 -- -- 93
2019-12-03 01:00:00 0.4 2 Noroeste 8 Oeste 0 -- -- 91
2019-12-03 00:00:00 1.2 2 Norte 8 Nordeste 0 -- -- 88
2019-12-02 23:00:00 1.8 0 Calma 10 Nordeste 0 -- -- 88
2019-12-02 22:00:00 2.4 0 Calma 5 Sudeste 0 -- -- 86
2019-12-02 21:00:00 3.4 4 Noroeste 10 Norte 0 -- -- 81
2019-12-02 20:00:00 4.8 3 Sur 20 Noroeste 0 -- -- 73
2019-12-02 19:00:00 6.3 8 Norte 21 Norte 0 -- -- 67
2019-12-02 18:00:00 7.1 7 Norte 23 Norte 0 -- -- 63
2019-12-02 17:00:00 7.9 12 Norte 33 Nordeste 0 -- -- 62
2019-12-02 16:00:00 8.9 11 Norte 35 Norte 0 -- -- 59
2019-12-02 15:00:00 9.1 8 Nordeste 40 Nordeste 0 -- -- 59
2019-12-02 14:00:00 8.8 13 Norte 41 Norte 0 -- -- 60
2019-12-02 13:00:00 8.5 13 Norte 28 Nordeste 0 -- -- 63
2019-12-02 12:00:00 8.2 9 Oeste 31 Norte 0 -- -- 64
2019-12-02 11:00:00 7.8 8 Nordeste 30 Nordeste 0 -- -- 62
2019-12-02 10:00:00 5.5 3 Sur 13 Nordeste 0 -- -- 74
2019-12-02 09:00:00 4.6 2 Norte 18 Nordeste 0 -- -- 80
2019-12-02 08:00:00 5 7 Norte 18 Norte 0 -- -- 78
2019-12-02 07:00:00 5.6 9 Norte 28 Norte 0 -- -- 72
2019-12-02 06:00:00 5.1 8 Norte 23 Norte 0 -- -- 74
2019-12-02 05:00:00 5.1 3 Noroeste 24 Norte 0 -- -- 78
2019-12-02 04:00:00 5.6 11 Norte 25 Norte 0 -- -- 76
2019-12-02 03:00:00 4.9 5 Norte 12 Norte 0 -- -- 85
2019-12-02 02:00:00 5.3 4 Norte 10 Norte 0 -- -- 90
2019-12-02 01:00:00 5.7 0 Calma 19 Norte 0 -- -- 87
2019-12-02 00:00:00 6.3 9 Norte 23 Nordeste 0 -- -- 81
2019-12-01 23:00:00 5.9 4 Norte 14 Nordeste 0 -- -- 90
2019-12-01 22:00:00 5.6 0 Calma 6 Norte 0 -- -- 98
2019-12-01 21:00:00 5.7 3 Norte 6 Este 0.4 -- -- 98
2019-12-01 20:00:00 5.7 0 Calma 5 Norte 1 -- -- 98
2019-12-01 19:00:00 5.7 0 Calma 5 Nordeste 0.2 -- -- 97
2019-12-01 18:00:00 5.9 3 Nordeste 5 Nordeste 1 -- -- 97
2019-12-01 17:00:00 6 2 Nordeste 6 Nordeste 0.2 -- -- 96
2019-12-01 16:00:00 6.2 3 Nordeste 6 Nordeste 0.2 -- -- 93
2019-12-01 15:00:00 6.5 0 Calma 3 Sur 0.2 -- -- 89
2019-12-01 14:00:00 6.5 0 Calma 4 Nordeste 0.2 -- -- 85
2019-12-01 13:00:00 6 3 Nordeste 6 Norte 0 -- -- 83
2019-12-01 12:00:00 5.2 3 Nordeste 9 Nordeste 0 -- -- 87
2019-12-01 11:00:00 4 5 Nordeste 14 Nordeste 0 -- -- 91
2019-12-01 10:00:00 2.9 8 Nordeste 14 Nordeste 0 -- -- 94
2019-12-01 09:00:00 2.6 7 Nordeste 17 Nordeste 0 -- -- 95
2019-12-01 08:00:00 2.1 10 Nordeste 18 Nordeste 0 -- -- 97
2019-12-01 07:00:00 1.7 6 Nordeste 10 Norte 0 -- -- 97
2019-12-01 06:00:00 1.4 3 Nordeste 10 Norte 0 -- -- 97
2019-12-01 05:00:00 1.4 6 Nordeste 9 Norte 0 -- -- 99
2019-12-01 04:00:00 1.2 0 Calma 3 Norte 0 -- -- 100
2019-12-01 03:00:00 1.3 0 Calma 3 Sur 0 -- -- 98
2019-12-01 02:00:00 2.1 0 Calma 8 Noroeste 0 -- -- 97
2019-12-01 01:00:00 2.9 0 Calma 6 Norte 0 -- -- 97
2019-12-01 00:00:00 3.4 0 Calma 8 Noroeste 0 -- -- 96
2019-11-30 23:00:00 4.8 0 Calma 32 Nordeste 0.4 -- -- 93
2019-11-30 22:00:00 5.6 19 Nordeste 53 Nordeste 0 -- -- 82
2019-11-30 21:00:00 7.1 26 Nordeste 51 Nordeste 0.2 -- -- 70
2019-11-30 20:00:00 8 15 Nordeste 27 Este 0 -- -- 82
2019-11-30 19:00:00 8.7 4 Norte 19 Nordeste 1 -- -- 85
2019-11-30 18:00:00 10.4 9 Sudoeste 36 Sudeste 0.6 -- -- 93
2019-11-30 17:00:00 11 14 Sudeste 39 Sudeste 0 -- -- 88
2019-11-30 16:00:00 11.1 13 Sudeste 29 Sudeste 0 -- -- 89
2019-11-30 15:00:00 11 11 Sudeste 33 Sudeste 0 -- -- 90
2019-11-30 14:00:00 10.8 10 Sudeste 27 Sudeste 0 -- -- 93
2019-11-30 13:00:00 10.6 9 Sudeste 24 Sudeste 0 -- -- 97
2019-11-30 12:00:00 10.3 11 Sudeste 19 Sudeste 0 -- -- 99
2019-11-30 11:00:00 10.3 4 Sur 16 Sudeste 0 -- -- 100
2019-11-30 10:00:00 9.3 5 Sur 10 Sudeste 0 -- -- 100
2019-11-30 09:00:00 8.4 0 Calma 6 Nordeste 0 -- -- 100
2019-11-30 08:00:00 8.2 0 Calma 3 Nordeste 0 -- -- 100
2019-11-30 07:00:00 8.1 0 Calma 3 Sur 0 -- -- 100
2019-11-30 06:00:00 8.2 0 Calma 4 Nordeste 0 -- -- 100
2019-11-30 05:00:00 8.2 0 Calma 4 Nordeste 0 -- -- 100
2019-11-30 04:00:00 8.1 0 Calma 8 Nordeste 0.2 -- -- 99
2019-11-30 03:00:00 7.9 2 Nordeste 8 Nordeste 0 -- -- 99
2019-11-30 02:00:00 7.8 4 Nordeste 6 Nordeste 0.2 -- -- 99
2019-11-30 01:00:00 7.7 0 Calma 9 Nordeste 1 -- -- 97
2019-11-30 00:00:00 7.7 6 Nordeste 12 Nordeste 0 -- -- 97
2019-11-29 23:00:00 8.1 5 Nordeste 11 Nordeste 0 -- -- 99
2019-11-29 22:00:00 8.1 0 Calma 8 Norte 0 -- -- 100
2019-11-29 21:00:00 8.6 3 Norte 9 Nordeste 0 -- -- 99
2019-11-29 20:00:00 8.9 0 Calma 5 Nordeste 0 -- -- 98
2019-11-29 19:00:00 10 0 Calma 9 Oeste 0 -- -- 97
2019-11-29 18:00:00 11.3 0 Calma 11 Sudeste 0 -- -- 95
2019-11-29 17:00:00 11.6 9 Sudeste 13 Sudeste 0 -- -- 94
2019-11-29 16:00:00 11.6 6 Sudeste 19 Sur 0 -- -- 96
2019-11-29 15:00:00 11.2 10 Sudeste 15 Sur 0.2 -- -- 98
2019-11-29 14:00:00 11 7 Sudeste 17 Sudeste 0 -- -- 97
2019-11-29 13:00:00 10.7 9 Sur 21 Sudeste 0 -- -- 99
2019-11-29 12:00:00 10.3 8 Sur 15 Sudeste 0 -- -- 100
2019-11-29 11:00:00 10 7 Sudeste 13 Sudeste 0 -- -- 100
2019-11-29 10:00:00 9.5 5 Sudeste 9 Sudeste 0 -- -- 100
2019-11-29 09:00:00 9.2 0 Calma 9 Sur 0 -- -- 100
2019-11-29 08:00:00 9.3 3 Sur 9 Sudeste 0 -- -- 100
2019-11-29 07:00:00 9 2 Sudoeste 12 Sudeste 0 -- -- 100
2019-11-29 06:00:00 9.1 6 Sudeste 14 Sur 0 -- -- 100
2019-11-29 05:00:00 9 3 Sudoeste 15 Sudeste 0 -- -- 100
2019-11-29 04:00:00 8.9 6 Sudeste 13 Sudeste 0 -- -- 100
2019-11-29 03:00:00 8.6 0 Calma 5 Nordeste 0.2 -- -- 100
2019-11-29 02:00:00 8.7 0 Calma 9 Sudeste 0.4 -- -- 99
2019-11-29 01:00:00 8.6 5 Sudeste 9 Sudeste 0.4 -- -- 99
2019-11-29 00:00:00 8.6 5 Sur 10 Sudeste 0 -- -- 98
2019-11-28 23:00:00 8.7 4 Sur 14 Sudeste 0 -- -- 96
2019-11-28 22:00:00 8.8 8 Sudeste 16 Sudeste 0 -- -- 95
2019-11-28 21:00:00 8.8 4 Sudeste 12 Sudeste 0 -- -- 95
2019-11-28 20:00:00 8.8 6 Sudeste 15 Sudeste 0 -- -- 94
2019-11-28 19:00:00 9.1 4 Sudeste 10 Sudeste 0 -- -- 92
2019-11-28 18:00:00 9.2 3 Sudeste 9 Sudeste 0 -- -- 90
2019-11-28 17:00:00 9.3 4 Sudeste 8 Sudeste 0 -- -- 90
2019-11-28 16:00:00 9 0 Calma 16 Sudeste 0 -- -- 90
2019-11-28 15:00:00 9 4 Sudeste 24 Sudeste 0 -- -- 88
2019-11-28 14:00:00 9 13 Sudeste 23 Sudeste 0 -- -- 89
2019-11-28 13:00:00 8.1 12 Sudeste 29 Sudeste 0 -- -- 94
2019-11-28 12:00:00 7.6 19 Sudeste 33 Sudeste 0 -- -- 95
2019-11-28 11:00:00 7.5 15 Sudeste 24 Sudeste 0 -- -- 96
2019-11-28 10:00:00 6.8 2 Sudeste 13 Sudeste 0 -- -- 99
2019-11-28 09:00:00 6.5 6 Sudeste 17 Sudeste 0 -- -- 99
2019-11-28 08:00:00 6.4 4 Sur 13 Nordeste 0 -- -- 98
2019-11-28 07:00:00 6.3 3 Noroeste 24 Sudeste 0 -- -- 98
2019-11-28 06:00:00 6.5 9 Sudeste 18 Sur 0 -- -- 97
2019-11-28 05:00:00 6.6 11 Sur 32 Sudeste 0 -- -- 96
2019-11-28 04:00:00 7.1 10 Sur 24 Sudeste 0 -- -- 94
2019-11-28 03:00:00 7.1 5 Sudeste 13 Sudeste 0 -- -- 95
2019-11-28 02:00:00 7.4 0 Calma 14 Sudeste 0 -- -- 94
2019-11-28 01:00:00 7.6 3 Sur 17 Sudeste 0 -- -- 91
2019-11-28 00:00:00 7.7 4 Sur 17 Sudeste 0 -- -- 92
2019-11-27 23:00:00 8.2 13 Sur 18 Sudeste 0 -- -- 89
2019-11-27 22:00:00 8.3 6 Sur 14 Sur 0 -- -- 85
2019-11-27 21:00:00 8.1 7 Sur 12 Sur 0 -- -- 89
2019-11-27 20:00:00 8.7 2 Nordeste 17 Sur 0 -- -- 84
2019-11-27 19:00:00 9 12 Sudeste 20 Sudeste 0 -- -- 85
2019-11-27 18:00:00 9.7 10 Sudeste 20 Sudeste 0 -- -- 81
2019-11-27 17:00:00 10.3 5 Sur 18 Sur 0 -- -- 79
2019-11-27 16:00:00 10.9 6 Sudeste 18 Sudeste 0 -- -- 75
2019-11-27 15:00:00 11.5 6 Sudeste 21 Sudeste 0 -- -- 64
2019-11-27 14:00:00 11.6 4 Este 18 Nordeste 0 -- -- 59
2019-11-27 06:00:00 -- -- -- -- -- -- -- -- --
2019-11-27 05:00:00 -- -- -- -- -- -- -- -- --
2019-11-27 04:00:00 8.7 0 Calma 21 Sudeste 0.2 -- -- 92
2019-11-27 03:00:00 9.4 10 Sur 27 Sudeste 0.2 -- -- 97
2019-11-27 02:00:00 9.5 6 Sur 15 Sur 0.6 -- -- 97
2019-11-27 01:00:00 9.9 6 Sur 18 Sudoeste 0.8 -- -- 96
2019-11-27 00:00:00 10.3 6 Sudoeste 24 Oeste 0.2 -- -- 95
2019-11-26 23:00:00 10.8 13 Sudoeste 31 Sudoeste 0 -- -- 94
2019-11-26 22:00:00 11 4 Sudeste 23 Sudoeste 1.6 -- -- 98
2019-11-26 21:00:00 10.9 6 Este 22 Sudeste 0.6 -- -- 98
2019-11-26 20:00:00 10.7 10 Sudeste 31 Sudeste 0.4 -- -- 98
2019-11-26 19:00:00 10.4 6 Sudeste 25 Sudeste 0 -- -- 97
2019-11-26 18:00:00 10.2 5 Sudoeste 29 Sudeste 0.2 -- -- 99
2019-11-26 17:00:00 9.8 13 Sudeste 22 Sudeste 1.4 -- -- 99
2019-11-26 16:00:00 9.1 3 Sudeste 11 Sudeste 0.4 -- -- 99
2019-11-26 15:00:00 9 4 Sudeste 18 Sudeste 0.2 -- -- 98
2019-11-26 14:00:00 9.4 12 Sudeste 19 Sudeste 0 -- -- 98
2019-11-26 13:00:00 9.1 9 Sudeste 16 Sudeste 0 -- -- 98
2019-11-26 12:00:00 8.5 5 Sudeste 9 Sur 0 -- -- 98
2019-11-26 11:00:00 7.4 0 Calma 6 Nordeste 0 -- -- 95
2019-11-26 10:00:00 6.2 2 Nordeste 9 Nordeste 0 -- -- 94
2019-11-26 09:00:00 5.4 0 Calma 7 Norte 0 -- -- 96
2019-11-26 08:00:00 5 4 Nordeste 6 Nordeste 0 -- -- 98
2019-11-26 07:00:00 4.6 0 Calma 8 Nordeste 0 -- -- 98
2019-11-26 06:00:00 4.9 5 Nordeste 8 Nordeste 0 -- -- 98
2019-11-26 05:00:00 4.9 0 Calma 4 Noroeste 0 -- -- 100
2019-11-26 04:00:00 3.9 0 Calma 3 Sur 0 -- -- 99
2019-11-26 03:00:00 4.1 0 Calma 3 Sur 0 -- -- 98
2019-11-26 02:00:00 4.8 0 Calma 4 Sur 0 -- -- 97
2019-11-26 01:00:00 5.3 0 Calma 4 Sur 0 -- -- 96
2019-11-26 00:00:00 5.7 0 Calma 5 Sur 0 -- -- 97
2019-11-25 23:00:00 6.4 0 Calma 4 Norte 0 -- -- 95
2019-11-25 22:00:00 7.4 0 Calma 4 Nordeste 0 -- -- 92
2019-11-25 21:00:00 8 3 Sudeste 7 Sudeste 0 -- -- 91
2019-11-25 20:00:00 8.8 0 Calma 7 Sudeste 0 -- -- 88
2019-11-25 19:00:00 9.8 0 Calma 12 Este 0 -- -- 82
2019-11-25 18:00:00 11 2 Sudeste 10 Nordeste 0 -- -- 76
2019-11-25 17:00:00 12.5 4 Nordeste 31 Nordeste 0 -- -- 64
2019-11-25 16:00:00 13.1 13 Nordeste 28 Nordeste 0 -- -- 62
2019-11-25 15:00:00 13.5 6 Sudeste 25 Nordeste 0 -- -- 62
2019-11-25 14:00:00 12.1 3 Sur 16 Sudeste 0 -- -- 88
2019-11-25 13:00:00 10.1 4 Sur 16 Sudeste 0 -- -- 94
2019-11-25 12:00:00 9 5 Sur 14 Sudeste 0 -- -- 97
2019-11-25 11:00:00 8.4 5 Sudeste 17 Sudoeste 0 -- -- 99
2019-11-25 10:00:00 7.7 9 Sur 15 Sur 0 -- -- 100
2019-11-25 09:00:00 7.6 3 Sudoeste 17 Sudeste 0 -- -- 100
2019-11-25 08:00:00 7.4 5 Sudeste 21 Sur 0 -- -- 100
2019-11-25 07:00:00 6.9 3 Este 13 Sur 0.6 -- -- 99
2019-11-25 06:00:00 7 0 Calma 17 Sudeste 0 -- -- 98
2019-11-25 05:00:00 6.8 5 Sur 26 Sudeste 0.4 -- -- 99
2019-11-25 04:00:00 6 4 Sur 12 Sudeste 0.2 -- -- 98
2019-11-25 03:00:00 5.4 3 Nordeste 10 Sudeste 0.6 -- -- 98
2019-11-25 02:00:00 5.2 7 Sur 11 Sudeste 0.2 -- -- 97
2019-11-25 01:00:00 5.5 2 Sudeste 12 Sudeste 0.4 -- -- 94
2019-11-25 00:00:00 5.6 4 Sudeste 14 Sudeste 0.2 -- -- 93
2019-11-24 23:00:00 5.9 4 Sur 7 Sur 0 -- -- 87
2019-11-24 22:00:00 5.7 0 Calma 3 Sur 0 -- -- 87
2019-11-24 21:00:00 5.7 0 Calma 4 Sudeste 0 -- -- 86
2019-11-24 20:00:00 5.6 0 Calma 4 Sur 0 -- -- 85
2019-11-24 19:00:00 5.7 0 Calma 5 Sudeste 0 -- -- 82
2019-11-24 18:00:00 6.6 0 Calma 13 Nordeste 0 -- -- 75
2019-11-24 17:00:00 8.2 4 Sur 17 Norte 0 -- -- 65
2019-11-24 16:00:00 9 8 Nordeste 21 Nordeste 0 -- -- 58
2019-11-24 15:00:00 8.7 13 Nordeste 24 Este 0 -- -- 58
2019-11-24 14:00:00 7.9 8 Nordeste 28 Nordeste 0 -- -- 62
2019-11-24 13:00:00 6.6 20 Nordeste 32 Nordeste 0 -- -- 68
2019-11-24 12:00:00 6.4 7 Nordeste 37 Nordeste 0 -- -- 70
2019-11-24 11:00:00 5.6 20 Nordeste 35 Nordeste 0 -- -- 73
2019-11-24 10:00:00 5.2 13 Nordeste 30 Este 0 -- -- 75
2019-11-24 09:00:00 5.4 3 Sudeste 13 Este 0 -- -- 74
2019-11-24 08:00:00 5.3 5 Nordeste 17 Nordeste 0 -- -- 76
2019-11-24 07:00:00 5.4 6 Nordeste 18 Nordeste 0 -- -- 76
2019-11-24 06:00:00 5.6 5 Este 18 Norte 0 -- -- 74
2019-11-24 05:00:00 5.9 5 Norte 17 Sudoeste 0 -- -- 71
2019-11-24 04:00:00 5.9 3 Sur 12 Sudeste 0 -- -- 71
2019-11-24 03:00:00 5.6 3 Sur 16 Este 0 -- -- 75
2019-11-24 02:00:00 6.5 10 Nordeste 35 Norte 0 -- -- 68
2019-11-24 01:00:00 6.6 14 Nordeste 44 Nordeste 0 -- -- 68
2019-11-24 00:00:00 7.1 22 Nordeste 52 Nordeste 0 -- -- 64
2019-11-23 23:00:00 7.1 12 Nordeste 46 Este 0 -- -- 66
2019-11-23 22:00:00 7.5 18 Nordeste 60 Nordeste 0 -- -- 64
2019-11-23 21:00:00 7.7 17 Nordeste 59 Este 0 -- -- 65
2019-11-23 20:00:00 7.9 15 Nordeste 37 Nordeste 0 -- -- 62
2019-11-23 19:00:00 8.2 19 Nordeste 39 Este 0 -- -- 61
2019-11-23 18:00:00 7.9 13 Nordeste 39 Nordeste 0 -- -- 60
2019-11-23 17:00:00 8.2 6 Este 36 Nordeste 0 -- -- 63
2019-11-23 16:00:00 8.8 9 Sur 28 Nordeste 0 -- -- 56
2019-11-23 15:00:00 8.4 13 Nordeste 40 Este 0 -- -- 56
2019-11-23 14:00:00 8.4 18 Nordeste 45 Nordeste 0 -- -- 58
2019-11-23 13:00:00 7.1 6 Este 28 Nordeste 0 -- -- 67
2019-11-23 12:00:00 6.7 6 Sur 31 Sur 0 -- -- 68
2019-11-23 11:00:00 5.4 8 Sur 29 Noroeste 0 -- -- 72
2019-11-23 10:00:00 5.2 6 Nordeste 35 Este 0 -- -- 69
2019-11-23 09:00:00 5.2 11 Nordeste 49 Nordeste 0 -- -- 75
2019-11-23 08:00:00 5.3 12 Sudeste 57 Este 0.2 -- -- 74
2019-11-23 07:00:00 5.5 15 Nordeste 35 Nordeste 0.2 -- -- 80
2019-11-23 06:00:00 5.1 7 Nordeste 31 Norte 0.6 -- -- 80
2019-11-23 05:00:00 5.1 11 Sur 40 Sur 0.4 -- -- 85
2019-11-23 04:00:00 6.1 7 Sudeste 32 Sudeste 0 -- -- 75
2019-11-23 03:00:00 6.5 10 Nordeste 37 Sur 0 -- -- 70
2019-11-23 02:00:00 5.7 6 Este 20 Sur 1.6 -- -- 84
2019-11-23 01:00:00 7 11 Sur 32 Sudoeste 0.6 -- -- 81
2019-11-23 00:00:00 7.2 10 Sur 23 Sur 0.4 -- -- 93
2019-11-22 23:00:00 7.4 5 Sur 11 Sudeste 0.4 -- -- 93
2019-11-22 22:00:00 7.8 5 Sur 29 Sudeste 0 -- -- 83
2019-11-22 21:00:00 7.4 7 Sur 19 Sudeste 0 -- -- 95
2019-11-22 20:00:00 8.1 3 Nordeste 11 Sudeste 0.8 -- -- 94
2019-11-22 19:00:00 9.1 5 Sur 24 Sudeste 0 -- -- 97
2019-11-22 18:00:00 9.2 8 Sudeste 21 Sudeste 0.6 -- -- 99
2019-11-22 17:00:00 9 2 Sur 24 Sudeste 0.4 -- -- 99
2019-11-22 16:00:00 8.9 11 Sudeste 26 Sudeste 1.4 -- -- 98
2019-11-22 15:00:00 8.4 12 Sudeste 28 Sudeste 2.6 -- -- 99
2019-11-22 14:00:00 8 12 Sudeste 27 Sudeste 4.8 -- -- 99
2019-11-22 13:00:00 7.7 15 Sudeste 35 Sur 3.6 -- -- 99
2019-11-22 12:00:00 7.4 10 Sudeste 33 Sudeste 0.8 -- -- 99
2019-11-22 11:00:00 7 10 Sudeste 23 Sudeste 1.8 -- -- 100
2019-11-22 10:00:00 6.7 10 Sudeste 23 Sudeste 3.6 -- -- 100
2019-11-22 09:00:00 6.2 7 Sudeste 17 Sudeste 3 -- -- 100
2019-11-22 08:00:00 5.8 10 Sudeste 23 Sudeste 1.2 -- -- 100
2019-11-22 07:00:00 5.6 6 Sudeste 17 Sudeste 1 -- -- 100
2019-11-22 06:00:00 5.3 4 Sudeste 6 Sudeste 1.2 -- -- 100
2019-11-22 05:00:00 5.2 3 Sudeste 9 Sudeste 1 -- -- 99
2019-11-22 04:00:00 5.1 5 Sudeste 8 Sudeste 1.4 -- -- 99
2019-11-22 03:00:00 5.2 3 Sudeste 8 Sudeste 0.4 -- -- 98
2019-11-22 02:00:00 5.2 5 Sur 8 Sudeste 0 -- -- 98
2019-11-22 01:00:00 5.4 4 Sudeste 9 Sudeste 0 -- -- 98
2019-11-22 00:00:00 5.3 2 Sur 5 Nordeste 0 -- -- 98
2019-11-21 23:00:00 5.1 0 Calma 5 Este 0 -- -- 98
2019-11-21 22:00:00 5.1 2 Este 11 Nordeste 0 -- -- 98
2019-11-21 21:00:00 5.3 0 Calma 3 Este 0 -- -- 98
2019-11-21 20:00:00 5.5 0 Calma 6 Sudeste 0 -- -- 99
2019-11-21 19:00:00 5.1 2 Sur 7 Sur 0 -- -- 99
2019-11-21 18:00:00 5.5 4 Sur 9 Sudeste 0 -- -- 97
2019-11-21 17:00:00 6 2 Sudeste 12 Sudeste 0 -- -- 96
2019-11-21 16:00:00 6 6 Sudeste 13 Sudeste 0 -- -- 94
2019-11-21 15:00:00 6.2 7 Sudeste 16 Sudeste 0 -- -- 92
2019-11-21 14:00:00 6 8 Sudeste 15 Sudeste 0 -- -- 94
2019-11-21 13:00:00 5.4 9 Sudeste 19 Sudeste 0 -- -- 95
2019-11-21 12:00:00 4.9 8 Sudeste 18 Sudeste 0.2 -- -- 99
2019-11-21 11:00:00 4.1 7 Sudeste 11 Sudeste 0.2 -- -- 98
2019-11-21 10:00:00 3.6 2 Sudeste 5 Sudeste 0.2 -- -- 98
2019-11-21 09:00:00 3.2 0 Calma 4 Sur 0 -- -- 98
2019-11-21 08:00:00 -- -- -- -- -- -- -- -- --
2019-11-21 07:00:00 -- -- -- -- -- -- -- -- --
2019-11-21 06:00:00 -- -- -- -- -- -- -- -- --
2019-11-21 05:00:00 -- -- -- -- -- -- -- -- --
2019-11-21 04:00:00 -- -- -- -- -- -- -- -- --
2019-11-21 03:00:00 -- -- -- -- -- -- -- -- --
2019-11-21 02:00:00 -- -- -- -- -- -- -- -- --
2019-11-21 01:00:00 -- -- -- -- -- -- -- -- --
2019-11-21 00:00:00 -- -- -- -- -- -- -- -- --
2019-11-20 23:00:00 -- -- -- -- -- -- -- -- --
2019-11-20 22:00:00 -- -- -- -- -- -- -- -- --
2019-11-20 21:00:00 3.8 3 Sur 7 Sudeste 0 -- -- 96
2019-11-20 20:00:00 3.9 4 Sudeste 8 Sudeste 0.2 -- -- 97
2019-11-20 19:00:00 4.1 3 Sudeste 8 Sudeste 0.4 -- -- 95
2019-11-20 18:00:00 4.4 0 Calma 11 Sudeste 0.4 -- -- 94
2019-11-20 17:00:00 4.7 4 Sudeste 15 Sudeste 0.8 -- -- 90
2019-11-20 16:00:00 5.6 5 Sudeste 14 Sudeste 0 -- -- 84
2019-11-20 15:00:00 6.1 7 Sudeste 20 Sudeste 0 -- -- 81
2019-11-20 14:00:00 6.1 7 Sudeste 19 Sudeste 0 -- -- 79
2019-11-20 13:00:00 5.4 6 Sudeste 14 Sudeste 0 -- -- 84
2019-11-20 12:00:00 4 3 Sur 7 Sur 0 -- -- 90
2019-11-20 11:00:00 1.8 0 Calma 8 Nordeste 0 -- -- 91
2019-11-20 10:00:00 0.5 5 Nordeste 8 Nordeste 0 -- -- 95
2019-11-20 09:00:00 -0.8 0 Calma 3 Nordeste 0 -- -- 99
2019-11-20 08:00:00 -1.2 0 Calma 2 Norte 0 -- -- 98
2019-11-20 07:00:00 -1 0 Calma 2 Sur 0 -- -- 97
2019-11-20 06:00:00 -0.8 0 Calma 5 Norte 0 -- -- 97
2019-11-20 05:00:00 -0.7 0 Calma 5 Norte 0 -- -- 96
2019-11-20 04:00:00 -0.6 2 Noroeste 4 Norte 0 -- -- 96
2019-11-20 03:00:00 -0.5 0 Calma 5 Norte 0 -- -- 95
2019-11-20 02:00:00 -0.3 0 Calma 6 Norte 0 -- -- 95
2019-11-20 01:00:00 -0.1 2 Norte 8 Norte 0 -- -- 94
2019-11-20 00:00:00 0.1 3 Norte 6 Norte 0 -- -- 93
2019-11-19 23:00:00 1.1 3 Nordeste 6 Nordeste 0 -- -- 92
2019-11-19 22:00:00 1.3 0 Calma 5 Nordeste 0 -- -- 92
2019-11-19 21:00:00 2.1 0 Calma 3 Norte 0 -- -- 90
2019-11-19 20:00:00 3 0 Calma 3 Sur 0 -- -- 86
2019-11-19 19:00:00 4.3 0 Calma 10 Sudeste 0 -- -- 81
2019-11-19 18:00:00 5.3 5 Sur 18 Sudeste 0 -- -- 76
2019-11-19 17:00:00 6.8 6 Sudeste 18 Sudeste 0 -- -- 67
2019-11-19 16:00:00 7.4 11 Sudeste 21 Sudeste 0 -- -- 62
2019-11-19 15:00:00 7.8 12 Sudeste 28 Sudeste 0 -- -- 62
2019-11-19 14:00:00 8.2 10 Sudeste 20 Sudeste 0 -- -- 61
2019-11-19 13:00:00 8.7 9 Sudeste 18 Sudeste 0 -- -- 62
2019-11-19 12:00:00 7.2 8 Sudeste 17 Sur 0 -- -- 66
2019-11-19 11:00:00 4.1 4 Sur 10 Sudeste 0 -- -- 82
2019-11-19 10:00:00 0.1 0 Calma 10 Nordeste 0 -- -- 93
2019-11-19 09:00:00 -0.8 5 Nordeste 9 Nordeste 0 -- -- 96
2019-11-19 08:00:00 -1.6 0 Calma 9 Nordeste 0 -- -- 95
2019-11-19 07:00:00 -1.5 2 Sur 7 Este 0 -- -- 96
2019-11-19 06:00:00 -1.6 0 Calma 5 Sur 0 -- -- 96
2019-11-19 05:00:00 -1.2 0 Calma 8 Nordeste 0 -- -- 94
2019-11-19 04:00:00 -1.6 0 Calma 4 Sur 0 -- -- 96
2019-11-19 03:00:00 -1.4 0 Calma 4 Sur 0 -- -- 95
2019-11-19 02:00:00 -0.7 0 Calma 6 Sur 0 -- -- 92
2019-11-19 01:00:00 0.2 0 Calma 6 Sur 0 -- -- 88
2019-11-19 00:00:00 2.3 3 Sur 12 Este 0 -- -- 78
2019-11-18 23:00:00 4.8 7 Nordeste 17 Nordeste 0 -- -- 67
2019-11-18 22:00:00 5.2 6 Nordeste 24 Nordeste 0 -- -- 66
2019-11-18 21:00:00 5.2 4 Norte 32 Nordeste 0 -- -- 66
2019-11-18 20:00:00 5.7 13 Nordeste 26 Nordeste 0 -- -- 66
2019-11-18 19:00:00 5.4 5 Sur 22 Este 0 -- -- 65
2019-11-18 18:00:00 5.7 10 Nordeste 29 Nordeste 0 -- -- 62
2019-11-18 17:00:00 6 8 Nordeste 34 Nordeste 0 -- -- 62
2019-11-18 16:00:00 6.6 14 Nordeste 44 Nordeste 0 -- -- 63
2019-11-18 15:00:00 6.7 27 Nordeste 54 Nordeste 0 -- -- 63
2019-11-18 14:00:00 6.8 20 Nordeste 50 Nordeste 0 -- -- 62
2019-11-18 13:00:00 6.3 15 Nordeste 45 Nordeste 0 -- -- 65
2019-11-18 12:00:00 6.4 17 Nordeste 48 Norte 0 -- -- 67
2019-11-18 11:00:00 6.2 12 Nordeste 35 Este 0 -- -- 63
2019-11-18 10:00:00 5.4 14 Nordeste 33 Nordeste 0 -- -- 65
2019-11-18 09:00:00 4.5 12 Nordeste 36 Nordeste 0 -- -- 71
2019-11-18 08:00:00 3.7 10 Nordeste 18 Nordeste 0 -- -- 75
2019-11-18 07:00:00 3.3 5 Nordeste 13 Norte 0 -- -- 77
2019-11-18 06:00:00 3.5 5 Nordeste 24 Nordeste 0 -- -- 79
2019-11-18 05:00:00 4.1 14 Nordeste 30 Nordeste 0 -- -- 80
2019-11-18 04:00:00 4.2 14 Nordeste 27 Nordeste 0 -- -- 79
2019-11-18 03:00:00 3.7 8 Nordeste 15 Nordeste 0 -- -- 82
2019-11-18 02:00:00 2.3 0 Calma 5 Sur 0 -- -- 94
2019-11-18 01:00:00 2.2 0 Calma 8 Sudeste 0 -- -- 92
2019-11-18 00:00:00 3.6 4 Sudeste 17 Norte 0 -- -- 82
2019-11-17 23:00:00 5.7 8 Nordeste 25 Nordeste 0 -- -- 72
2019-11-17 22:00:00 4.9 5 Norte 15 Sudeste 0 -- -- 94
2019-11-17 21:00:00 4.6 2 Sur 10 Sudeste 0.2 -- -- 99
2019-11-17 20:00:00 4.4 9 Sur 20 Sudeste 0 -- -- 99
2019-11-17 19:00:00 4.1 12 Sudeste 23 Sudeste 0 -- -- 98
2019-11-17 18:00:00 3.9 12 Sudeste 20 Sudeste 0.2 -- -- 97
2019-11-17 17:00:00 4 10 Sudeste 24 Sudeste 0.4 -- -- 96
2019-11-17 16:00:00 4 10 Sudeste 22 Sudeste 0.2 -- -- 93
2019-11-17 15:00:00 4.1 14 Sudeste 25 Sudeste 0 -- -- 91
2019-11-17 14:00:00 3.6 15 Sudeste 23 Sudeste 0.6 -- -- 90
2019-11-17 13:00:00 4 9 Sudeste 22 Sudeste 0.6 -- -- 92
2019-11-17 12:00:00 3.9 9 Sudeste 22 Sudeste 0 -- -- 83
2019-11-17 11:00:00 3.4 9 Sudeste 15 Sudeste 0 -- -- 82
2019-11-17 10:00:00 2.8 10 Sudeste 20 Sudeste 0 -- -- 80
2019-11-17 09:00:00 2.6 6 Sudeste 12 Sudeste 0 -- -- 81
2019-11-17 08:00:00 2.5 5 Sur 8 Sudeste 0 -- -- 89
2019-11-17 07:00:00 2.2 0 Calma 2 Sur 0 -- -- 88
2019-11-17 06:00:00 1.3 0 Calma 2 Este 0 -- -- 89
2019-11-17 05:00:00 0.8 0 Calma 4 Sur 0 -- -- 90
2019-11-17 04:00:00 0.3 0 Calma 5 Sudeste 0 -- -- 91
2019-11-17 03:00:00 -0.1 0 Calma 5 Este 0 -- -- 89
2019-11-17 02:00:00 0.6 0 Calma 5 Sur 0 -- -- 85
2019-11-17 01:00:00 1.9 0 Calma 5 Oeste 0 -- -- 78
2019-11-17 00:00:00 3.8 4 Nordeste 16 Nordeste 0 -- -- 69
2019-11-16 23:00:00 4.4 6 Nordeste 17 Nordeste 0 -- -- 65
2019-11-16 22:00:00 4.9 6 Nordeste 23 Nordeste 0 -- -- 64
2019-11-16 21:00:00 5.2 4 Sudeste 21 Nordeste 0 -- -- 62
2019-11-16 20:00:00 5.2 6 Nordeste 15 Norte 0 -- -- 64
2019-11-16 19:00:00 3.7 2 Este 8 Nordeste 0 -- -- 71
2019-11-16 18:00:00 4.9 0 Calma 20 Sur 0 -- -- 65
2019-11-16 17:00:00 5.8 3 Sudoeste 21 Nordeste 0 -- -- 59
2019-11-16 16:00:00 6 6 Sudeste 30 Nordeste 0 -- -- 59
2019-11-16 15:00:00 6.1 7 Nordeste 32 Nordeste 0 -- -- 58
2019-11-16 14:00:00 5.7 7 Este 28 Nordeste 0 -- -- 58
2019-11-16 13:00:00 5.7 7 Sudeste 25 Nordeste 0 -- -- 63
2019-11-16 12:00:00 4.7 10 Nordeste 27 Este 0 -- -- 63
2019-11-16 11:00:00 4.2 12 Nordeste 29 Nordeste 0 -- -- 65
2019-11-16 10:00:00 2.7 13 Nordeste 24 Nordeste 0 -- -- 75
2019-11-16 09:00:00 -0.7 0 Calma 5 Nordeste 0 -- -- 93
2019-11-16 08:00:00 -0.2 2 Norte 4 Norte 0 -- -- 88
2019-11-16 07:00:00 0.9 0 Calma 13 Nordeste 0 -- -- 83
2019-11-16 06:00:00 2.1 7 Nordeste 17 Nordeste 0 -- -- 77
2019-11-16 05:00:00 2 4 Norte 10 Norte 0 -- -- 78
2019-11-16 04:00:00 1.3 0 Calma 16 Nordeste 0 -- -- 85
2019-11-16 03:00:00 2.9 13 Nordeste 27 Nordeste 0 -- -- 73
2019-11-16 02:00:00 3 9 Nordeste 22 Nordeste 0 -- -- 74
2019-11-16 01:00:00 2.1 0 Calma 12 Nordeste 0 -- -- 87
2019-11-16 00:00:00 2.2 4 Nordeste 13 Nordeste 0 -- -- 89